createdAt,value
2022-09-10T00:00:33.688Z,9.711903
2022-09-10T00:01:33.739Z,9.712026
2022-09-10T00:02:33.771Z,9.712043
2022-09-10T00:03:33.661Z,9.711863
2022-09-10T00:04:33.666Z,9.711728
2022-09-10T00:05:33.643Z,9.711657
2022-09-10T00:06:33.635Z,9.711832
2022-09-10T00:07:33.632Z,9.711768
2022-09-10T00:08:33.731Z,9.711866
2022-09-10T00:09:33.634Z,9.711735
2022-09-10T00:10:33.616Z,9.711880
2022-09-10T00:11:33.596Z,9.711799
2022-09-10T00:12:33.618Z,9.711851
2022-09-10T00:13:33.585Z,9.711895
2022-09-10T00:14:33.618Z,9.711792
2022-09-10T00:15:33.592Z,9.711799
2022-09-10T00:16:33.596Z,9.711716
2022-09-10T00:17:33.556Z,9.711765
2022-09-10T00:18:33.547Z,9.711768
2022-09-10T00:19:33.540Z,9.711783
2022-09-10T00:20:33.528Z,9.711778
2022-09-10T00:21:33.530Z,9.711803
2022-09-10T00:22:33.513Z,9.711713
2022-09-10T00:23:33.508Z,9.711716
2022-09-10T00:24:33.501Z,9.711716
2022-09-10T00:25:33.490Z,9.711749
2022-09-10T00:26:33.826Z,9.711761
2022-09-10T00:27:33.471Z,9.711740
2022-09-10T00:28:33.504Z,9.711737
2022-09-10T00:29:33.459Z,9.711773
2022-09-10T00:34:34.656Z,9.712896
2022-09-10T00:35:34.652Z,9.711914
2022-09-10T00:36:34.684Z,9.711808
2022-09-10T00:37:34.631Z,9.711477
2022-09-10T00:38:34.674Z,9.711406
2022-09-10T00:39:34.676Z,9.711291
2022-09-10T00:40:35.526Z,9.711330
2022-09-10T00:41:34.596Z,9.711275
2022-09-10T00:42:34.589Z,9.711309
2022-09-10T00:43:34.581Z,9.711414
2022-09-10T00:44:35.709Z,9.711326
2022-09-10T00:45:35.632Z,9.711339
2022-09-10T00:46:34.591Z,9.711337
2022-09-10T00:47:34.559Z,9.711375
2022-09-10T00:48:34.576Z,9.711356
2022-09-10T00:49:34.543Z,9.711347
2022-09-10T00:50:34.518Z,9.711437
2022-09-10T00:51:34.514Z,9.711370
2022-09-10T00:52:39.447Z,9.711369
2022-09-10T00:53:36.504Z,9.711452
2022-09-10T00:54:34.486Z,9.711351
2022-09-10T00:55:34.478Z,9.711297
2022-09-10T00:56:34.484Z,9.711480
2022-09-10T00:57:34.476Z,9.711522
2022-09-10T00:58:34.539Z,9.711415
2022-09-10T00:59:34.461Z,9.711470
2022-09-10T01:00:34.490Z,9.711472
2022-09-10T01:01:34.550Z,9.711441
2022-09-10T01:02:34.434Z,9.711478
2022-09-10T01:03:34.421Z,9.711643
2022-09-10T01:04:34.410Z,9.711576
2022-09-10T01:05:34.409Z,9.711686
2022-09-10T01:06:34.401Z,9.711258
2022-09-10T01:07:34.399Z,9.711293
2022-09-10T01:08:34.454Z,9.711059
2022-09-10T01:09:34.375Z,9.711716
2022-09-10T01:10:34.373Z,9.712358
2022-09-10T01:11:34.944Z,9.713273
2022-09-10T01:12:36.104Z,9.712720
2022-09-10T01:13:35.356Z,9.713111
2022-09-10T01:14:34.339Z,9.712595
2022-09-10T01:15:34.332Z,9.712283
2022-09-10T01:16:34.400Z,9.711996
2022-09-10T01:17:34.369Z,9.711485
2022-09-10T01:18:34.412Z,9.711299
2022-09-10T01:19:34.310Z,9.711125
2022-09-10T01:20:34.346Z,9.711266
2022-09-10T01:21:35.031Z,9.711474
2022-09-10T01:22:35.272Z,9.711622
2022-09-10T01:23:34.272Z,9.711571
2022-09-10T01:24:34.262Z,9.711587
2022-09-10T01:25:34.241Z,9.711513
2022-09-10T01:26:35.239Z,9.711462
2022-09-10T01:27:34.231Z,9.711335
2022-09-10T01:28:34.272Z,9.711367
2022-09-10T01:29:34.232Z,9.711405
2022-09-10T01:30:34.210Z,9.711261
2022-09-10T01:31:34.289Z,9.711227
2022-09-10T01:32:34.195Z,9.711303
2022-09-10T01:33:34.197Z,9.711576
2022-09-10T01:34:34.175Z,9.711493
2022-09-10T01:35:34.175Z,9.711370
2022-09-10T01:36:34.162Z,9.711247
2022-09-10T01:37:34.162Z,9.711369
2022-09-10T01:38:34.266Z,9.711538
2022-09-10T01:39:34.230Z,9.711795
2022-09-10T01:40:34.124Z,9.711783
2022-09-10T01:41:34.118Z,9.711818
2022-09-10T01:42:34.109Z,9.711725
2022-09-10T01:43:34.111Z,9.711724
2022-09-10T01:44:34.101Z,9.711658
2022-09-10T01:45:34.144Z,9.711688
2022-09-10T01:46:34.083Z,9.711639
2022-09-10T01:47:34.072Z,9.711635
2022-09-10T01:48:34.064Z,9.711634
2022-09-10T01:49:34.059Z,9.711675
2022-09-10T01:50:34.061Z,9.711691
2022-09-10T01:51:34.034Z,9.711707
2022-09-10T01:52:34.037Z,9.711702
2022-09-10T01:53:34.026Z,9.711689
2022-09-10T01:54:34.029Z,9.711665
2022-09-10T01:55:34.004Z,9.711724
2022-09-10T01:56:34.001Z,9.711624
2022-09-10T01:57:33.989Z,9.711618
2022-09-10T01:58:33.982Z,9.711645
2022-09-10T01:59:33.978Z,9.711668
2022-09-10T02:00:33.975Z,9.711653
2022-09-10T02:01:33.974Z,9.711705
2022-09-10T02:02:33.948Z,9.711656
2022-09-10T02:03:33.941Z,9.711691
2022-09-10T02:04:33.941Z,9.711665
2022-09-10T02:05:33.928Z,9.711637
2022-09-10T02:06:33.924Z,9.711618
2022-09-10T02:07:33.908Z,9.711683
2022-09-10T02:08:33.910Z,9.711672
2022-09-10T02:09:33.903Z,9.711681
2022-09-10T02:10:33.896Z,9.711685
2022-09-10T02:11:33.885Z,9.711638
2022-09-10T02:12:33.870Z,9.711632
2022-09-10T02:13:33.871Z,9.711615
2022-09-10T02:14:33.857Z,9.711652
2022-09-10T02:15:33.860Z,9.711621
2022-09-10T02:16:34.058Z,9.711679
2022-09-10T02:17:33.831Z,9.711616
2022-09-10T02:18:33.841Z,9.711609
2022-09-10T02:19:33.816Z,9.711541
2022-09-10T02:20:33.819Z,9.711650
2022-09-10T02:21:33.808Z,9.711664
2022-09-10T02:22:33.834Z,9.711572
2022-09-10T02:23:33.785Z,9.711651
2022-09-10T02:24:33.785Z,9.711611
2022-09-10T02:25:33.776Z,9.711540
2022-09-10T02:26:33.772Z,9.711606
2022-09-10T02:27:33.761Z,9.711695
2022-09-10T02:28:33.758Z,9.711672
2022-09-10T02:29:33.744Z,9.711603
2022-09-10T02:30:33.736Z,9.711589
2022-09-10T02:31:33.762Z,9.711472
2022-09-10T02:32:33.731Z,9.711572
2022-09-10T02:33:33.715Z,9.711641
2022-09-10T02:34:34.564Z,9.711569
2022-09-10T02:35:33.701Z,9.711304
2022-09-10T02:36:33.704Z,9.711525
2022-09-10T02:37:34.479Z,9.711506
2022-09-10T02:38:33.677Z,9.711567
2022-09-10T02:39:33.694Z,9.711535
2022-09-10T02:40:33.648Z,9.711460
2022-09-10T02:41:33.669Z,9.711427
2022-09-10T02:42:33.636Z,9.711556
2022-09-10T02:43:34.556Z,9.711502
2022-09-10T02:44:33.621Z,9.711515
2022-09-10T02:45:33.665Z,9.711313
2022-09-10T02:46:33.604Z,9.712046
2022-09-10T02:47:33.601Z,9.711941
2022-09-10T02:48:33.590Z,9.711686
2022-09-10T02:49:33.584Z,9.711460
2022-09-10T02:50:33.581Z,9.711976
2022-09-10T02:51:33.570Z,9.711656
2022-09-10T02:52:33.557Z,9.711619
2022-09-10T02:53:33.545Z,9.711677
2022-09-10T02:54:33.538Z,9.711407
2022-09-10T02:55:33.529Z,9.711641
2022-09-10T02:56:33.531Z,9.711905
2022-09-10T02:57:33.528Z,9.711997
2022-09-10T02:58:33.513Z,9.711785
2022-09-10T02:59:33.501Z,9.711604
2022-09-10T03:00:33.494Z,9.711507
2022-09-10T03:01:33.486Z,9.711569
2022-09-10T03:02:33.492Z,9.711480
2022-09-10T03:03:33.475Z,9.711386
2022-09-10T03:04:33.462Z,9.711720
2022-09-10T03:05:33.490Z,9.712200
2022-09-10T03:06:33.449Z,9.712215
2022-09-10T03:07:33.445Z,9.711868
2022-09-10T03:08:33.430Z,9.711892
2022-09-10T03:09:33.426Z,9.712058
2022-09-10T03:10:33.423Z,9.711955
2022-09-10T03:11:33.408Z,9.711321
2022-09-10T03:12:33.400Z,9.711483
2022-09-10T03:13:33.400Z,9.711517
2022-09-10T03:14:33.378Z,9.711369
2022-09-10T03:15:33.373Z,9.711370
2022-09-10T03:16:33.426Z,9.711356
2022-09-10T03:17:33.355Z,9.711300
2022-09-10T03:18:33.357Z,9.711380
2022-09-10T03:19:33.336Z,9.711625
2022-09-10T03:20:33.332Z,9.711782
2022-09-10T03:21:33.324Z,9.711699
2022-09-10T03:22:33.319Z,9.711963
2022-09-10T03:23:33.312Z,9.712121
2022-09-10T03:24:33.304Z,9.712242
2022-09-10T03:25:33.298Z,9.712122
2022-09-10T03:26:33.286Z,9.711946
2022-09-10T03:27:33.272Z,9.711706
2022-09-10T03:28:33.275Z,9.711711
2022-09-10T03:29:33.260Z,9.711282
2022-09-10T03:30:33.250Z,9.711239
2022-09-10T03:31:33.271Z,9.711211
2022-09-10T03:32:33.235Z,9.711199
2022-09-10T03:33:33.235Z,9.711275
2022-09-10T03:34:33.221Z,9.711205
2022-09-10T03:35:33.206Z,9.711381
2022-09-10T03:36:33.200Z,9.711390
2022-09-10T03:37:33.190Z,9.711498
2022-09-10T03:38:33.184Z,9.711493
2022-09-10T03:39:33.232Z,9.711749
2022-09-10T03:40:33.167Z,9.711514
2022-09-10T03:41:33.165Z,9.711508
2022-09-10T03:42:33.149Z,9.711587
2022-09-10T03:43:33.147Z,9.711751
2022-09-10T03:44:33.138Z,9.711718
2022-09-10T03:45:33.209Z,9.711658
2022-09-10T03:46:33.135Z,9.711891
2022-09-10T03:47:33.111Z,9.711557
2022-09-10T03:48:33.102Z,9.711241
2022-09-10T03:49:33.091Z,9.711578
2022-09-10T03:50:33.101Z,9.711611
2022-09-10T03:51:33.083Z,9.711386
2022-09-10T03:52:33.074Z,9.711628
2022-09-10T03:53:33.059Z,9.711649
2022-09-10T03:54:33.058Z,9.711706
2022-09-10T03:55:33.081Z,9.711691
2022-09-10T03:56:33.045Z,9.711691
2022-09-10T03:57:33.038Z,9.711646
2022-09-10T03:58:33.026Z,9.711633
2022-09-10T03:59:33.014Z,9.711527
2022-09-10T04:00:33.007Z,9.711581
2022-09-10T04:01:33.003Z,9.711609
2022-09-10T04:02:33.000Z,9.711612
2022-09-10T04:03:32.990Z,9.711552
2022-09-10T04:04:32.976Z,9.711539
2022-09-10T04:05:32.967Z,9.711639
2022-09-10T04:06:32.958Z,9.711652
2022-09-10T04:07:32.950Z,9.711512
2022-09-10T04:08:32.958Z,9.711457
2022-09-10T04:09:32.931Z,9.711510
2022-09-10T04:10:32.925Z,9.711811
2022-09-10T04:11:32.916Z,9.711893
2022-09-10T04:12:32.919Z,9.711866
2022-09-10T04:13:33.583Z,9.711872
2022-09-10T04:14:33.898Z,9.711679
2022-09-10T04:15:32.883Z,9.711681
2022-09-10T04:16:32.886Z,9.711780
2022-09-10T04:17:32.869Z,9.711557
2022-09-10T04:18:32.896Z,9.711762
2022-09-10T04:19:32.852Z,9.711768
2022-09-10T04:20:32.845Z,9.711668
2022-09-10T04:21:32.835Z,9.711530
2022-09-10T04:22:32.831Z,9.711618
2022-09-10T04:23:32.837Z,9.711705
2022-09-10T04:24:32.813Z,9.711946
2022-09-10T04:25:32.798Z,9.711951
2022-09-10T04:26:32.795Z,9.711877
2022-09-10T04:27:32.781Z,9.711923
2022-09-10T04:28:32.798Z,9.711806
2022-09-10T04:29:32.779Z,9.711770
2022-09-10T04:30:32.768Z,9.711675
2022-09-10T04:31:32.788Z,9.711408
2022-09-10T04:32:32.749Z,9.711543
2022-09-10T04:33:32.739Z,9.711569
2022-09-10T04:34:32.737Z,9.711540
2022-09-10T04:35:32.721Z,9.711457
2022-09-10T04:36:32.719Z,9.711373
2022-09-10T04:37:32.724Z,9.711571
2022-09-10T04:38:32.703Z,9.711481
2022-09-10T04:39:32.737Z,9.711530
2022-09-10T04:40:32.695Z,9.711531
2022-09-10T04:41:33.602Z,9.711623
2022-09-10T04:42:32.673Z,9.711610
2022-09-10T04:43:32.664Z,9.711559
2022-09-10T04:44:32.653Z,9.711523
2022-09-10T04:45:32.683Z,9.711571
2022-09-10T04:46:32.636Z,9.711530
2022-09-10T04:47:32.639Z,9.711556
2022-09-10T04:48:32.646Z,9.711649
2022-09-10T04:49:32.616Z,9.711634
2022-09-10T04:50:32.608Z,9.711529
2022-09-10T04:51:32.595Z,9.711556
2022-09-10T04:52:32.586Z,9.711589
2022-09-10T04:53:32.600Z,9.711550
2022-09-10T04:54:32.573Z,9.711567
2022-09-10T04:55:32.564Z,9.711568
2022-09-10T04:56:32.556Z,9.711540
2022-09-10T04:57:32.552Z,9.711606
2022-09-10T04:58:36.654Z,9.711584
2022-09-10T04:59:34.541Z,9.711598
2022-09-10T05:00:32.530Z,9.711621
2022-09-10T05:01:32.523Z,9.711614
2022-09-10T05:02:32.549Z,9.711629
2022-09-10T05:03:32.519Z,9.711634
2022-09-10T05:04:34.023Z,9.711585
2022-09-10T05:05:32.491Z,9.711648
2022-09-10T05:06:32.478Z,9.711622
2022-09-10T05:07:32.504Z,9.711646
2022-09-10T05:08:32.464Z,9.711596
2022-09-10T05:09:32.459Z,9.711560
2022-09-10T05:10:32.445Z,9.711539
2022-09-10T05:11:32.462Z,9.711627
2022-09-10T05:12:32.430Z,9.711684
2022-09-10T05:13:32.423Z,9.711688
2022-09-10T05:14:32.427Z,9.711688
2022-09-10T05:15:32.407Z,9.711625
2022-09-10T05:16:32.432Z,9.711530
2022-09-10T05:17:32.387Z,9.711652
2022-09-10T05:18:32.381Z,9.711757
2022-09-10T05:19:32.388Z,9.711761
2022-09-10T05:20:32.364Z,9.711537
2022-09-10T05:21:32.366Z,9.711658
2022-09-10T05:22:38.432Z,9.711675
2022-09-10T05:23:34.361Z,9.711711
2022-09-10T05:24:32.334Z,9.711557
2022-09-10T05:25:32.330Z,9.711553
2022-09-10T05:26:32.319Z,9.711519
2022-09-10T05:27:32.308Z,9.711570
2022-09-10T05:28:32.302Z,9.711576
2022-09-10T05:29:32.293Z,9.711838
2022-09-10T05:30:32.288Z,9.712028
2022-09-10T05:31:32.290Z,9.712008
2022-09-10T05:32:32.259Z,9.711733
2022-09-10T05:33:33.254Z,9.711680
2022-09-10T05:34:32.254Z,9.711862
2022-09-10T05:35:32.251Z,9.711838
2022-09-10T05:36:32.233Z,9.711796
2022-09-10T05:37:32.224Z,9.711776
2022-09-10T05:38:32.214Z,9.711926
2022-09-10T05:39:32.342Z,9.711894
2022-09-10T05:40:32.207Z,9.711929
2022-09-10T05:41:32.190Z,9.711897
2022-09-10T05:42:32.181Z,9.711872
2022-09-10T05:43:32.176Z,9.711794
2022-09-10T05:44:32.167Z,9.711964
2022-09-10T05:45:32.193Z,9.711789
2022-09-10T05:46:32.151Z,9.711927
2022-09-10T05:47:32.144Z,9.711956
2022-09-10T05:48:32.174Z,9.711637
2022-09-10T05:49:32.129Z,9.711939
2022-09-10T05:50:32.129Z,9.711868
2022-09-10T05:51:32.119Z,9.711879
2022-09-10T05:52:32.103Z,9.711765
2022-09-10T05:53:32.110Z,9.711893
2022-09-10T05:54:32.088Z,9.712091
2022-09-10T05:55:32.078Z,9.711838
2022-09-10T05:56:32.079Z,9.711575
2022-09-10T05:57:32.064Z,9.711509
2022-09-10T05:58:32.092Z,9.711501
2022-09-10T05:59:32.050Z,9.711462
2022-09-10T06:00:32.043Z,9.711452
2022-09-10T06:01:32.054Z,9.711484
2022-09-10T06:02:32.067Z,9.711416
2022-09-10T06:03:32.023Z,9.711458
2022-09-10T06:04:32.015Z,9.711514
2022-09-10T06:05:32.005Z,9.711488
2022-09-10T06:06:31.994Z,9.711385
2022-09-10T06:07:31.988Z,9.711543
2022-09-10T06:08:32.037Z,9.711374
2022-09-10T06:09:31.975Z,9.711589
2022-09-10T06:10:32.006Z,9.711698
2022-09-10T06:11:31.948Z,9.711802
2022-09-10T06:12:32.949Z,9.711773
2022-09-10T06:13:32.550Z,9.711628
2022-09-10T06:14:31.931Z,9.711550
2022-09-10T06:15:31.926Z,9.711591
2022-09-10T06:16:31.943Z,9.711648
2022-09-10T06:17:31.908Z,9.711665
2022-09-10T06:18:31.908Z,9.711656
2022-09-10T06:19:31.899Z,9.711731
2022-09-10T06:20:31.885Z,9.711633
2022-09-10T06:21:31.876Z,9.711620
2022-09-10T06:22:31.871Z,9.711649
2022-09-10T06:23:31.922Z,9.711639
2022-09-10T06:24:31.857Z,9.711638
2022-09-10T06:25:31.846Z,9.711621
2022-09-10T06:26:31.839Z,9.711628
2022-09-10T06:27:31.966Z,9.711607
2022-09-10T06:28:31.855Z,9.711662
2022-09-10T06:29:31.822Z,9.711636
2022-09-10T06:30:31.834Z,9.711708
2022-09-10T06:31:31.801Z,9.711703
2022-09-10T06:32:31.785Z,9.711731
2022-09-10T06:33:31.785Z,9.711661
2022-09-10T06:34:31.771Z,9.711704
2022-09-10T06:35:31.765Z,9.711602
2022-09-10T06:36:31.752Z,9.711571
2022-09-10T06:37:31.835Z,9.711569
2022-09-10T06:38:31.797Z,9.711591
2022-09-10T06:39:31.734Z,9.711575
2022-09-10T06:40:32.157Z,9.711371
2022-09-10T06:41:31.721Z,9.711596
2022-09-10T06:42:31.740Z,9.711613
2022-09-10T06:43:31.762Z,9.711783
2022-09-10T06:44:31.695Z,9.711907
2022-09-10T06:45:31.712Z,9.711667
2022-09-10T06:47:10.727Z,9.711661
2022-09-10T06:48:38.604Z,9.711799
2022-09-10T06:49:33.657Z,9.712004
2022-09-10T06:50:31.659Z,9.711931
2022-09-10T06:51:31.642Z,9.712029
2022-09-10T06:52:31.637Z,9.712095
2022-09-10T06:53:31.628Z,9.711767
2022-09-10T06:54:31.614Z,9.711592
2022-09-10T06:55:31.625Z,9.711584
2022-09-10T06:56:31.595Z,9.712266
2022-09-10T06:57:31.594Z,9.712273
2022-09-10T06:58:31.685Z,9.712251
2022-09-10T06:59:31.581Z,9.712513
2022-09-10T07:00:31.564Z,9.711938
2022-09-10T07:01:31.646Z,9.712029
2022-09-10T07:02:32.120Z,9.712081
2022-09-10T07:03:31.554Z,9.711818
2022-09-10T07:04:31.550Z,9.712058
2022-09-10T07:05:31.533Z,9.712479
2022-09-10T07:06:31.535Z,9.712369
2022-09-10T07:07:31.511Z,9.712214
2022-09-10T07:08:31.524Z,9.711859
2022-09-10T07:09:31.495Z,9.711767
2022-09-10T07:10:31.502Z,9.711752
2022-09-10T07:11:31.491Z,9.711777
2022-09-10T07:12:31.474Z,9.711696
2022-09-10T07:13:31.460Z,9.711726
2022-09-10T07:14:32.456Z,9.711683
2022-09-10T07:15:31.483Z,9.711488
2022-09-10T07:16:31.467Z,9.711579
2022-09-10T07:17:32.152Z,9.711481
2022-09-10T07:18:32.423Z,9.711658
2022-09-10T07:19:31.421Z,9.711586
2022-09-10T07:20:31.410Z,9.711861
2022-09-10T07:21:31.406Z,9.711776
2022-09-10T07:22:31.392Z,9.711531
2022-09-10T07:23:31.382Z,9.711661
2022-09-10T07:24:31.376Z,9.711813
2022-09-10T07:25:31.372Z,9.711844
2022-09-10T07:26:31.372Z,9.711914
2022-09-10T07:27:31.355Z,9.711834
2022-09-10T07:28:31.385Z,9.711765
2022-09-10T07:29:31.439Z,9.711823
2022-09-10T07:30:31.341Z,9.711816
2022-09-10T07:31:31.330Z,9.711885
2022-09-10T07:32:31.311Z,9.711816
2022-09-10T07:33:31.301Z,9.711737
2022-09-10T07:34:31.299Z,9.711663
2022-09-10T07:35:31.312Z,9.711835
2022-09-10T07:36:31.281Z,9.711681
2022-09-10T07:37:31.278Z,9.711522
2022-09-10T07:38:31.276Z,9.711440
2022-09-10T07:39:31.253Z,9.711487
2022-09-10T07:40:31.255Z,9.711514
2022-09-10T07:41:31.251Z,9.711624
2022-09-10T07:42:31.234Z,9.711667
2022-09-10T07:43:31.225Z,9.711687
2022-09-10T07:44:31.221Z,9.711736
2022-09-10T07:45:31.241Z,9.711678
2022-09-10T07:46:31.198Z,9.711710
2022-09-10T07:47:31.189Z,9.711724
2022-09-10T07:48:31.218Z,9.711795
2022-09-10T07:49:31.174Z,9.711732
2022-09-10T07:50:31.171Z,9.711855
2022-09-10T07:51:31.161Z,9.711578
2022-09-10T07:52:31.158Z,9.711690
2022-09-10T07:53:31.654Z,9.711604
2022-09-10T07:54:31.147Z,9.711630
2022-09-10T07:55:31.139Z,9.711745
2022-09-10T07:56:31.131Z,9.711782
2022-09-10T07:57:31.116Z,9.711703
2022-09-10T07:58:32.182Z,9.711744
2022-09-10T07:59:31.100Z,9.711707
2022-09-10T08:00:31.088Z,9.711706
2022-09-10T08:01:31.113Z,9.711758
2022-09-10T08:02:31.095Z,9.711550
2022-09-10T08:03:31.067Z,9.711524
2022-09-10T08:04:35.881Z,9.711426
2022-09-10T08:05:33.047Z,9.711494
2022-09-10T08:06:31.044Z,9.711748
2022-09-10T08:07:31.036Z,9.711627
2022-09-10T08:08:31.032Z,9.711621
2022-09-10T08:09:31.014Z,9.711665
2022-09-10T08:10:31.006Z,9.711579
2022-09-10T08:11:30.998Z,9.711527
2022-09-10T08:12:30.993Z,9.711639
2022-09-10T08:13:30.988Z,9.711645
2022-09-10T08:14:30.973Z,9.711446
2022-09-10T08:15:30.976Z,9.711457
2022-09-10T08:16:30.970Z,9.711531
2022-09-10T08:17:31.039Z,9.711510
2022-09-10T08:18:30.969Z,9.711363
2022-09-10T08:19:30.946Z,9.711418
2022-09-10T08:20:30.938Z,9.711455
2022-09-10T08:21:30.929Z,9.711468
2022-09-10T08:22:30.927Z,9.711301
2022-09-10T08:23:30.904Z,9.711596
2022-09-10T08:24:30.894Z,9.711638
2022-09-10T08:25:30.899Z,9.711729
2022-09-10T08:26:30.883Z,9.711698
2022-09-10T08:27:31.676Z,9.711706
2022-09-10T08:28:30.868Z,9.711718
2022-09-10T08:29:30.855Z,9.711663
2022-09-10T08:30:30.860Z,9.711632
2022-09-10T08:31:30.838Z,9.711666
2022-09-10T08:32:30.845Z,9.711647
2022-09-10T08:33:30.841Z,9.711685
2022-09-10T08:34:30.813Z,9.711631
2022-09-10T08:35:30.815Z,9.711681
2022-09-10T08:36:30.805Z,9.711610
2022-09-10T08:37:30.797Z,9.711619
2022-09-10T08:38:30.791Z,9.711644
2022-09-10T08:39:30.776Z,9.711615
2022-09-10T08:40:30.779Z,9.711641
2022-09-10T08:41:30.764Z,9.711633
2022-09-10T08:42:30.764Z,9.711594
2022-09-10T08:43:30.756Z,9.711617
2022-09-10T08:44:30.741Z,9.711684
2022-09-10T08:45:30.772Z,9.711697
2022-09-10T08:46:30.721Z,9.711675
2022-09-10T08:47:30.739Z,9.711780
2022-09-10T08:48:30.715Z,9.711695
2022-09-10T08:49:30.696Z,9.711569
2022-09-10T08:50:30.692Z,9.711712
2022-09-10T08:51:30.688Z,9.711696
2022-09-10T08:52:30.750Z,9.711643
2022-09-10T08:53:30.666Z,9.711590
2022-09-10T08:54:30.666Z,9.711690
2022-09-10T08:55:30.653Z,9.711694
2022-09-10T08:56:30.675Z,9.711682
2022-09-10T08:57:30.661Z,9.711720
2022-09-10T08:58:30.634Z,9.711640
2022-09-10T08:59:30.622Z,9.711615
2022-09-10T09:00:30.617Z,9.711693
2022-09-10T09:01:30.707Z,9.711747
2022-09-10T09:02:47.832Z,9.711679
2022-09-10T09:03:32.601Z,9.711699
2022-09-10T09:04:30.589Z,9.711720
2022-09-10T09:05:30.575Z,9.711573
2022-09-10T09:06:30.568Z,9.711559
2022-09-10T09:07:30.566Z,9.711568
2022-09-10T09:08:30.563Z,9.711633
2022-09-10T09:09:31.199Z,9.711784
2022-09-10T09:10:30.529Z,9.711689
2022-09-10T09:11:30.537Z,9.711821
2022-09-10T09:12:30.525Z,9.711661
2022-09-10T09:13:30.512Z,9.711744
2022-09-10T09:14:30.503Z,9.711651
2022-09-10T09:15:30.542Z,9.711565
2022-09-10T09:16:30.482Z,9.711771
2022-09-10T09:17:31.499Z,9.711832
2022-09-10T09:18:30.480Z,9.711516
2022-09-10T09:19:30.460Z,9.711415
2022-09-10T09:20:30.458Z,9.711674
2022-09-10T09:21:30.452Z,9.711664
2022-09-10T09:22:30.493Z,9.711941
2022-09-10T09:23:30.435Z,9.711809
2022-09-10T09:24:30.437Z,9.711941
2022-09-10T09:25:30.426Z,9.711864
2022-09-10T09:26:30.418Z,9.711690
2022-09-10T09:27:30.403Z,9.711890
2022-09-10T09:28:30.390Z,9.712198
2022-09-10T09:29:31.110Z,9.712062
2022-09-10T09:30:30.370Z,9.711796
2022-09-10T09:31:30.417Z,9.711908
2022-09-10T09:32:30.393Z,9.711958
2022-09-10T09:33:30.348Z,9.711604
2022-09-10T09:34:31.110Z,9.711974
2022-09-10T09:35:30.332Z,9.711865
2022-09-10T09:36:30.323Z,9.711830
2022-09-10T09:37:30.328Z,9.711687
2022-09-10T09:38:30.311Z,9.711695
2022-09-10T09:39:30.314Z,9.711783
2022-09-10T09:40:30.294Z,9.711793
2022-09-10T09:41:30.289Z,9.711778
2022-09-10T09:42:30.285Z,9.711773
2022-09-10T09:43:30.276Z,9.711755
2022-09-10T09:44:30.264Z,9.711714
2022-09-10T09:45:30.356Z,9.711691
2022-09-10T09:46:30.253Z,9.711719
2022-09-10T09:47:30.344Z,9.711700
2022-09-10T09:48:30.238Z,9.711677
2022-09-10T09:49:30.222Z,9.711584
2022-09-10T09:50:30.208Z,9.711610
2022-09-10T09:51:31.210Z,9.711549
2022-09-10T09:52:30.207Z,9.711629
2022-09-10T09:53:30.203Z,9.711712
2022-09-10T09:55:12.572Z,9.711838
2022-09-10T09:55:32.178Z,9.711755
2022-09-10T09:56:30.196Z,9.711728
2022-09-10T09:57:30.177Z,9.711694
2022-09-10T09:58:30.156Z,9.711581
2022-09-10T09:59:30.149Z,9.711735
2022-09-10T10:00:30.146Z,9.711691
2022-09-10T10:01:30.151Z,9.711798
2022-09-10T10:02:30.156Z,9.711649
2022-09-10T10:03:30.113Z,9.711708
2022-09-10T10:04:30.114Z,9.711707
2022-09-10T10:05:30.102Z,9.711655
2022-09-10T10:06:30.101Z,9.711733
2022-09-10T10:07:30.087Z,9.711728
2022-09-10T10:08:30.085Z,9.711734
2022-09-10T10:09:30.075Z,9.711679
2022-09-10T10:10:30.060Z,9.711688
2022-09-10T10:11:30.065Z,9.711641
2022-09-10T10:12:30.039Z,9.711625
2022-09-10T10:13:30.049Z,9.711636
2022-09-10T10:14:30.029Z,9.711680
2022-09-10T10:15:30.052Z,9.711694
2022-09-10T10:16:30.024Z,9.711633
2022-09-10T10:17:30.053Z,9.711633
2022-09-10T10:18:29.999Z,9.711683
2022-09-10T10:19:30.030Z,9.711674
2022-09-10T10:20:29.980Z,9.711721
2022-09-10T10:21:29.980Z,9.711657
2022-09-10T10:22:29.976Z,9.711685
2022-09-10T10:23:31.209Z,9.711641
2022-09-10T10:24:30.952Z,9.711705
2022-09-10T10:25:29.965Z,9.711589
2022-09-10T10:26:29.954Z,9.711852
2022-09-10T10:27:29.930Z,9.711830
2022-09-10T10:28:29.928Z,9.711741
2022-09-10T10:29:29.911Z,9.711774
2022-09-10T10:30:29.911Z,9.711833
2022-09-10T10:31:29.895Z,9.711677
2022-09-10T10:32:29.888Z,9.711767
2022-09-10T10:33:29.886Z,9.711702
2022-09-10T10:34:29.874Z,9.711687
2022-09-10T10:35:29.918Z,9.711626
2022-09-10T10:36:29.862Z,9.711622
2022-09-10T10:37:29.851Z,9.711679
2022-09-10T10:38:29.841Z,9.711729
2022-09-10T10:39:29.837Z,9.711758
2022-09-10T10:40:29.830Z,9.711622
2022-09-10T10:41:29.837Z,9.711566
2022-09-10T10:42:30.709Z,9.711719
2022-09-10T10:43:29.811Z,9.711671
2022-09-10T10:44:29.797Z,9.711670
2022-09-10T10:45:29.786Z,9.711586
2022-09-10T10:46:29.816Z,9.711566
2022-09-10T10:47:29.773Z,9.711689
2022-09-10T10:48:29.759Z,9.711606
2022-09-10T10:49:29.748Z,9.711642
2022-09-10T10:50:29.740Z,9.711632
2022-09-10T10:51:29.744Z,9.711604
2022-09-10T10:52:29.735Z,9.711692
2022-09-10T10:53:29.723Z,9.711823
2022-09-10T10:54:29.716Z,9.711780
2022-09-10T10:55:29.705Z,9.712010
2022-09-10T10:56:29.710Z,9.711888
2022-09-10T10:57:29.771Z,9.711899
2022-09-10T10:58:29.683Z,9.712001
2022-09-10T10:59:29.693Z,9.711884
2022-09-10T11:00:29.664Z,9.711874
2022-09-10T11:01:29.706Z,9.711932
2022-09-10T11:02:29.684Z,9.711821
2022-09-10T11:03:29.640Z,9.711746
2022-09-10T11:04:29.639Z,9.711756
2022-09-10T11:05:29.630Z,9.711820
2022-09-10T11:06:29.633Z,9.711800
2022-09-10T11:07:29.603Z,9.712050
2022-09-10T11:08:29.598Z,9.711794
2022-09-10T11:09:30.220Z,9.711844
2022-09-10T11:10:29.591Z,9.711691
2022-09-10T11:11:29.586Z,9.711663
2022-09-10T11:12:29.566Z,9.711683
2022-09-10T11:13:30.228Z,9.711647
2022-09-10T11:14:29.574Z,9.711682
2022-09-10T11:15:29.541Z,9.711658
2022-09-10T11:16:29.534Z,9.711729
2022-09-10T11:17:29.531Z,9.711794
2022-09-10T11:18:29.523Z,9.711879
2022-09-10T11:19:29.521Z,9.712190
2022-09-10T11:20:30.265Z,9.712335
2022-09-10T11:21:30.498Z,9.712158
2022-09-10T11:22:29.499Z,9.712193
2022-09-10T11:23:29.479Z,9.712104
2022-09-10T11:24:29.491Z,9.711834
2022-09-10T11:25:29.462Z,9.711786
2022-09-10T11:26:29.459Z,9.711862
2022-09-10T11:27:29.448Z,9.711865
2022-09-10T11:28:29.441Z,9.711829
2022-09-10T11:29:29.446Z,9.711740
2022-09-10T11:30:29.436Z,9.711717
2022-09-10T11:31:29.433Z,9.711762
2022-09-10T11:32:29.412Z,9.711775
2022-09-10T11:33:29.393Z,9.711848
2022-09-10T11:34:29.400Z,9.712090
2022-09-10T11:35:29.383Z,9.712067
2022-09-10T11:36:29.371Z,9.712155
2022-09-10T11:37:29.362Z,9.712023
2022-09-10T11:38:29.356Z,9.712181
2022-09-10T11:39:29.345Z,9.712045
2022-09-10T11:40:29.377Z,9.712059
2022-09-10T11:41:29.330Z,9.712154
2022-09-10T11:42:29.329Z,9.712087
2022-09-10T11:43:29.327Z,9.712281
2022-09-10T11:44:32.355Z,9.712335
2022-09-10T11:45:30.309Z,9.712256
2022-09-10T11:46:30.303Z,9.712300
2022-09-10T11:47:29.301Z,9.712046
2022-09-10T11:48:33.293Z,9.712123
2022-09-10T11:49:31.234Z,9.712039